MSC Emma — V7WY6 — position and weather

sailwx.info

Track history (hours):
 
Tides and Currents Weather Stations Pressure Air Temp Water Temp Dewpoint Dewpoint Depression Visibility Wind Speed Wind Dir Waves Ship Positions

MSC Emma

Last reported at 2014-Aug-18 03:21 UTC. Time now 2014-Sep-19 21:59 UTC.
Position N 26°28' W 078°48'.
Warning: this ship's position is 32 days out of date.

Length 294 m; draft 10.3 m.

Type: Ship (hazmat cat A). MMSI: 538004424.

Date/timePositionNaut miles runAvg speedWind from/ knotsBaromVisibWave heightAir tempDewpointWater temp
2014-Aug-18 03:21N 26°28' W 078°48'484 9.7
2014-Aug-16 01:29N 34°12' W 076°06'2016.0
2014-Aug-16 00:12N 34°25' W 075°48'31116.3
2014-Aug-15 05:10N 39°22' W 073°54'1117.2
2014-Aug-15 04:34N 39°33' W 073°53'1716.9
2014-Aug-15 03:34N 39°50' W 073°52'1716.6
2014-Aug-15 02:33N 40°06' W 073°50'2015.3
2014-Aug-15 01:16N 40°26' W 073°49'1014.3
2014-Aug-15 00:33N 40°31' W 074°00'9 9.5
2014-Aug-14 23:33N 40°39' W 074°08'2 2.4
2014-Aug-14 22:31N 40°41' W 074°09'0 0.0
2014-Aug-14 21:31N 40°41' W 074°09'0 0.0
2014-Aug-14 20:27N 40°41' W 074°09'0 0.0
2014-Aug-14 19:33N 40°41' W 074°09'0 0.0
2014-Aug-14 18:32N 40°41' W 074°09'0 0.0
2014-Aug-14 17:32N 40°41' W 074°09'0 0.0
2014-Aug-14 16:32N 40°41' W 074°09'0 0.0
2014-Aug-14 15:31N 40°41' W 074°09'0 0.0
2014-Aug-14 14:31N 40°41' W 074°09'0 0.0
2014-Aug-14 13:33N 40°41' W 074°09'0 0.0
2014-Aug-14 12:33N 40°41' W 074°09'0 0.0
2014-Aug-14 11:32N 40°41' W 074°09'0 0.0
2014-Aug-14 10:32N 40°41' W 074°09'0 0.0
2014-Aug-14 09:32N 40°41' W 074°09'0 0.0
2014-Aug-14 08:31N 40°41' W 074°09'0 0.0
2014-Aug-14 07:31N 40°41' W 074°09'0 0.0
2014-Aug-14 06:33N 40°41' W 074°09'0 0.0
2014-Aug-14 05:33N 40°41' W 074°09'0 0.0
2014-Aug-14 04:32N 40°41' W 074°09'0 0.0
2014-Aug-14 03:32N 40°41' W 074°09'0 0.0
2014-Aug-14 02:31N 40°41' W 074°09'0 0.0
2014-Aug-14 01:28N 40°41' W 074°09'0 0.0
2014-Aug-14 00:31N 40°41' W 074°09'0 0.0
2014-Aug-13 23:33N 40°41' W 074°09'0 0.0
2014-Aug-13 22:33N 40°41' W 074°09'0 0.0
2014-Aug-13 21:32N 40°41' W 074°09'1 0.8
2014-Aug-13 20:33N 40°40' W 074°08'5 4.7
2014-Aug-13 19:33N 40°38' W 074°03'1110.9
2014-Aug-13 18:34N 40°29' W 073°54'1110.6
2014-Aug-13 17:33N 40°20' W 073°47'6 0.5
2014-Aug-13 05:31N 40°15' W 073°43'0 0.1
2014-Aug-13 04:30N 40°15' W 073°43'0 0.0
2014-Aug-13 03:33N 40°15' W 073°43'0 0.0
2014-Aug-13 02:32N 40°15' W 073°43'0 0.0
2014-Aug-13 01:32N 40°15' W 073°43'0 0.0
2014-Aug-13 00:25N 40°15' W 073°43'0 0.0
2014-Aug-12 23:31N 40°16' W 073°43'0 0.0
2014-Aug-12 22:31N 40°16' W 073°42'0 0.0
2014-Aug-12 21:24N 40°15' W 073°43'0 0.0
2014-Aug-12 20:33N 40°15' W 073°43'0 0.0
2014-Aug-12 19:32N 40°15' W 073°43'0 0.0
2014-Aug-12 18:29N 40°15' W 073°43'0 0.0
2014-Aug-12 17:19N 40°16' W 073°43'1 1.2
2014-Aug-12 16:33N 40°15' W 073°43'1212.4
2014-Aug-12 15:34N 40°02' W 073°44'1413.8
2014-Aug-12 14:33N 39°49' W 073°42'1413.6
2014-Aug-12 13:33N 39°35' W 073°43'1413.9
2014-Aug-12 12:33N 39°22' W 073°50'1413.9
2014-Aug-12 11:33N 39°09' W 073°56'1313.2
2014-Aug-12 10:33N 38°58' W 074°06'1313.5
2014-Aug-12 09:33N 38°49' W 074°19'1212.4
2014-Aug-12 08:33N 38°46' W 074°34'1413.7
2014-Aug-12 07:33N 38°46' W 074°51'1712.3
2014-Aug-12 06:11N 38°58' W 075°07'1218.7
2014-Aug-12 05:33N 39°08' W 075°14'1717.3
2014-Aug-12 04:33N 39°22' W 075°27'1312.7
2014-Aug-12 03:33N 39°34' W 075°33'1211.6
2014-Aug-12 02:33N 39°45' W 075°29'1410.6
2014-Aug-12 01:15N 39°52' W 075°14'5 6.7
2014-Aug-12 00:33N 39°54' W 075°08'0 0.0
2014-Aug-11 12:23N 39°54' W 075°08'0 0.0
2014-Aug-11 11:29N 39°54' W 075°08'0 0.0
2014-Aug-11 10:16N 39°54' W 075°08'0 0.0
2014-Aug-11 09:33N 39°54' W 075°08'3 3.5
2014-Aug-11 08:33N 39°53' W 075°12'1010.2
2014-Aug-11 07:33N 39°49' W 075°24'1312.7
2014-Aug-11 06:33N 39°38' W 075°34'1413.6
2014-Aug-11 05:32N 39°25' W 075°30'1616.5
2014-Aug-11 04:33N 39°12' W 075°17'1717.1
2014-Aug-11 03:33N 38°57' W 075°07'1512.0
2014-Aug-11 02:20N 38°45' W 074°57'911.3
2014-Aug-11 01:33N 38°38' W 074°49'1313.0
2014-Aug-11 00:33N 38°27' W 074°40'1313.2
2014-Aug-10 23:33N 38°15' W 074°35'1312.7
2014-Aug-10 22:30N 38°01' W 074°35'  
Track history (hours):
 
Tides and Currents Weather Stations Pressure Air Temp Water Temp Dewpoint Dewpoint Depression Visibility Wind Speed Wind Dir Waves Ship Positions

MSC Emma

Last reported at 2014-Aug-18 03:21 UTC. Time now 2014-Sep-19 21:59 UTC.
Position N 26°28' W 078°48'.
Warning: this ship's position is 32 days out of date.

Length 294 m; draft 10.3 m.

Type: Ship (hazmat cat A). MMSI: 538004424.

Date/timePositionNaut miles runAvg speedWind from/ knotsBaromVisibWave heightAir tempDewpointWater temp
2014-Aug-18 03:21N 26°28' W 078°48'484 9.7
2014-Aug-16 01:29N 34°12' W 076°06'2016.0
2014-Aug-16 00:12N 34°25' W 075°48'31116.3
2014-Aug-15 05:10N 39°22' W 073°54'1117.2
2014-Aug-15 04:34N 39°33' W 073°53'1716.9
2014-Aug-15 03:34N 39°50' W 073°52'1716.6
2014-Aug-15 02:33N 40°06' W 073°50'2015.3
2014-Aug-15 01:16N 40°26' W 073°49'1014.3
2014-Aug-15 00:33N 40°31' W 074°00'9 9.5
2014-Aug-14 23:33N 40°39' W 074°08'2 2.4
2014-Aug-14 22:31N 40°41' W 074°09'0 0.0
2014-Aug-14 21:31N 40°41' W 074°09'0 0.0
2014-Aug-14 20:27N 40°41' W 074°09'0 0.0
2014-Aug-14 19:33N 40°41' W 074°09'0 0.0
2014-Aug-14 18:32N 40°41' W 074°09'0 0.0
2014-Aug-14 17:32N 40°41' W 074°09'0 0.0
2014-Aug-14 16:32N 40°41' W 074°09'0 0.0
2014-Aug-14 15:31N 40°41' W 074°09'0 0.0
2014-Aug-14 14:31N 40°41' W 074°09'0 0.0
2014-Aug-14 13:33N 40°41' W 074°09'0 0.0
2014-Aug-14 12:33N 40°41' W 074°09'0 0.0
2014-Aug-14 11:32N 40°41' W 074°09'0 0.0
2014-Aug-14 10:32N 40°41' W 074°09'0 0.0
2014-Aug-14 09:32N 40°41' W 074°09'0 0.0
2014-Aug-14 08:31N 40°41' W 074°09'0 0.0
2014-Aug-14 07:31N 40°41' W 074°09'0 0.0
2014-Aug-14 06:33N 40°41' W 074°09'0 0.0
2014-Aug-14 05:33N 40°41' W 074°09'0 0.0
2014-Aug-14 04:32N 40°41' W 074°09'0 0.0
2014-Aug-14 03:32N 40°41' W 074°09'0 0.0
2014-Aug-14 02:31N 40°41' W 074°09'0 0.0
2014-Aug-14 01:28N 40°41' W 074°09'0 0.0
2014-Aug-14 00:31N 40°41' W 074°09'0 0.0
2014-Aug-13 23:33N 40°41' W 074°09'0 0.0
2014-Aug-13 22:33N 40°41' W 074°09'0 0.0
2014-Aug-13 21:32N 40°41' W 074°09'1 0.8
2014-Aug-13 20:33N 40°40' W 074°08'5 4.7
2014-Aug-13 19:33N 40°38' W 074°03'1110.9
2014-Aug-13 18:34N 40°29' W 073°54'1110.6
2014-Aug-13 17:33N 40°20' W 073°47'6 0.5
2014-Aug-13 05:31N 40°15' W 073°43'0 0.1
2014-Aug-13 04:30N 40°15' W 073°43'0 0.0
2014-Aug-13 03:33N 40°15' W 073°43'0 0.0
2014-Aug-13 02:32N 40°15' W 073°43'0 0.0
2014-Aug-13 01:32N 40°15' W 073°43'0 0.0
2014-Aug-13 00:25N 40°15' W 073°43'0 0.0
2014-Aug-12 23:31N 40°16' W 073°43'0 0.0
2014-Aug-12 22:31N 40°16' W 073°42'0 0.0
2014-Aug-12 21:24N 40°15' W 073°43'0 0.0
2014-Aug-12 20:33N 40°15' W 073°43'0 0.0
2014-Aug-12 19:32N 40°15' W 073°43'0 0.0
2014-Aug-12 18:29N 40°15' W 073°43'0 0.0
2014-Aug-12 17:19N 40°16' W 073°43'1 1.2
2014-Aug-12 16:33N 40°15' W 073°43'1212.4
2014-Aug-12 15:34N 40°02' W 073°44'1413.8
2014-Aug-12 14:33N 39°49' W 073°42'1413.6
2014-Aug-12 13:33N 39°35' W 073°43'1413.9
2014-Aug-12 12:33N 39°22' W 073°50'1413.9
2014-Aug-12 11:33N 39°09' W 073°56'1313.2
2014-Aug-12 10:33N 38°58' W 074°06'1313.5
2014-Aug-12 09:33N 38°49' W 074°19'1212.4
2014-Aug-12 08:33N 38°46' W 074°34'1413.7
2014-Aug-12 07:33N 38°46' W 074°51'1712.3
2014-Aug-12 06:11N 38°58' W 075°07'1218.7
2014-Aug-12 05:33N 39°08' W 075°14'1717.3
2014-Aug-12 04:33N 39°22' W 075°27'1312.7
2014-Aug-12 03:33N 39°34' W 075°33'1211.6
2014-Aug-12 02:33N 39°45' W 075°29'1410.6
2014-Aug-12 01:15N 39°52' W 075°14'5 6.7
2014-Aug-12 00:33N 39°54' W 075°08'0 0.0
2014-Aug-11 12:23N 39°54' W 075°08'0 0.0
2014-Aug-11 11:29N 39°54' W 075°08'0 0.0
2014-Aug-11 10:16N 39°54' W 075°08'0 0.0
2014-Aug-11 09:33N 39°54' W 075°08'3 3.5
2014-Aug-11 08:33N 39°53' W 075°12'1010.2
2014-Aug-11 07:33N 39°49' W 075°24'1312.7
2014-Aug-11 06:33N 39°38' W 075°34'1413.6
2014-Aug-11 05:32N 39°25' W 075°30'1616.5
2014-Aug-11 04:33N 39°12' W 075°17'1717.1
2014-Aug-11 03:33N 38°57' W 075°07'1512.0
2014-Aug-11 02:20N 38°45' W 074°57'911.3
2014-Aug-11 01:33N 38°38' W 074°49'1313.0
2014-Aug-11 00:33N 38°27' W 074°40'1313.2
2014-Aug-10 23:33N 38°15' W 074°35'1312.7
2014-Aug-10 22:30N 38°01' W 074°35'  

Dump ship's entire track history